Terminal Aerodrome Forecast
Issued by NWS

Home | Current Version | Previous Version | Text Only | Print | Product List | Glossary On
Versions: 1 2 3 4 5 6 7 8 9 10 11 12 13 14 15 16 17
000
FTUS46 KSTO 062335
TAFMHR
TAF
KMHR 062335Z 0700/0724 19008KT P6SM OVC035
     FM070700 15007KT P6SM -SHRA OVC025
     FM071800 20010KT P6SM VCSH BKN040 BKN100=

USA.gov is the U.S. government's official web portal to all federal, state and local government web resources and services.